sensor_id;sensor_type;location;lat;lon;timestamp;temperature;humidity
6724;DHT22;3399;52.530;13.304;2023-01-05T00:00:47;22.00;99.90
6724;DHT22;3399;52.530;13.304;2023-01-05T00:03:12;22.00;99.90
6724;DHT22;3399;52.530;13.304;2023-01-05T00:05:38;22.00;99.90
6724;DHT22;3399;52.530;13.304;2023-01-05T00:08:03;22.00;99.90
6724;DHT22;3399;52.530;13.304;2023-01-05T00:10:29;22.00;99.90
6724;DHT22;3399;52.530;13.304;2023-01-05T00:13:13;22.00;99.90
6724;DHT22;3399;52.530;13.304;2023-01-05T00:16:00;22.00;99.90
6724;DHT22;3399;52.530;13.304;2023-01-05T00:18:44;22.00;99.90
6724;DHT22;3399;52.530;13.304;2023-01-05T00:21:28;22.10;99.90
6724;DHT22;3399;52.530;13.304;2023-01-05T00:24:13;22.10;99.90
6724;DHT22;3399;52.530;13.304;2023-01-05T00:26:38;22.10;99.90
6724;DHT22;3399;52.530;13.304;2023-01-05T00:29:04;22.10;99.90
6724;DHT22;3399;52.530;13.304;2023-01-05T00:31:29;22.10;99.90
6724;DHT22;3399;52.530;13.304;2023-01-05T00:33:54;22.10;99.90
6724;DHT22;3399;52.530;13.304;2023-01-05T00:36:20;22.10;99.90
6724;DHT22;3399;52.530;13.304;2023-01-05T00:38:45;22.10;99.90
6724;DHT22;3399;52.530;13.304;2023-01-05T00:41:11;22.10;99.90
6724;DHT22;3399;52.530;13.304;2023-01-05T00:43:36;22.10;99.90
6724;DHT22;3399;52.530;13.304;2023-01-05T00:46:03;22.10;99.90
6724;DHT22;3399;52.530;13.304;2023-01-05T00:48:29;22.00;99.90
6724;DHT22;3399;52.530;13.304;2023-01-05T00:50:55;22.00;99.90
6724;DHT22;3399;52.530;13.304;2023-01-05T00:53:20;22.00;99.80
6724;DHT22;3399;52.530;13.304;2023-01-05T00:55:54;22.00;99.90
6724;DHT22;3399;52.530;13.304;2023-01-05T00:58:19;22.10;99.90
6724;DHT22;3399;52.530;13.304;2023-01-05T01:00:45;22.10;99.90
6724;DHT22;3399;52.530;13.304;2023-01-05T01:03:10;22.10;99.90
6724;DHT22;3399;52.530;13.304;2023-01-05T01:05:36;22.10;99.90
6724;DHT22;3399;52.530;13.304;2023-01-05T01:08:02;22.10;99.90
6724;DHT22;3399;52.530;13.304;2023-01-05T01:10:27;22.10;99.90
6724;DHT22;3399;52.530;13.304;2023-01-05T01:12:53;22.10;99.90
6724;DHT22;3399;52.530;13.304;2023-01-05T01:15:18;22.10;99.90
6724;DHT22;3399;52.530;13.304;2023-01-05T01:17:44;22.10;99.90
6724;DHT22;3399;52.530;13.304;2023-01-05T01:20:10;22.10;99.90
6724;DHT22;3399;52.530;13.304;2023-01-05T01:22:36;22.10;99.90
6724;DHT22;3399;52.530;13.304;2023-01-05T01:25:02;22.10;99.90
6724;DHT22;3399;52.530;13.304;2023-01-05T01:27:29;22.10;99.90
6724;DHT22;3399;52.530;13.304;2023-01-05T01:29:54;22.10;99.90
6724;DHT22;3399;52.530;13.304;2023-01-05T01:32:20;22.10;99.90
6724;DHT22;3399;52.530;13.304;2023-01-05T01:34:45;22.10;99.90
6724;DHT22;3399;52.530;13.304;2023-01-05T01:37:11;22.10;99.90
6724;DHT22;3399;52.530;13.304;2023-01-05T01:39:36;22.10;99.90
6724;DHT22;3399;52.530;13.304;2023-01-05T01:42:02;22.10;99.90
6724;DHT22;3399;52.530;13.304;2023-01-05T01:47:16;22.00;99.80
6724;DHT22;3399;52.530;13.304;2023-01-05T01:49:42;21.80;97.90
6724;DHT22;3399;52.530;13.304;2023-01-05T01:52:08;21.70;99.80
6724;DHT22;3399;52.530;13.304;2023-01-05T01:54:34;21.70;99.90
6724;DHT22;3399;52.530;13.304;2023-01-05T01:56:59;21.70;99.90
6724;DHT22;3399;52.530;13.304;2023-01-05T01:59:25;21.70;99.90
6724;DHT22;3399;52.530;13.304;2023-01-05T02:01:50;21.70;99.90
6724;DHT22;3399;52.530;13.304;2023-01-05T02:04:19;21.80;99.90
6724;DHT22;3399;52.530;13.304;2023-01-05T02:06:45;21.80;99.90
6724;DHT22;3399;52.530;13.304;2023-01-05T02:09:10;21.90;99.90
6724;DHT22;3399;52.530;13.304;2023-01-05T02:14:35;21.90;99.90
6724;DHT22;3399;52.530;13.304;2023-01-05T02:25:03;21.90;99.90
6724;DHT22;3399;52.530;13.304;2023-01-05T02:27:36;21.90;99.90
6724;DHT22;3399;52.530;13.304;2023-01-05T02:30:10;22.00;99.90
6724;DHT22;3399;52.530;13.304;2023-01-05T02:32:47;22.00;99.90
6724;DHT22;3399;52.530;13.304;2023-01-05T02:37:44;22.00;99.90
6724;DHT22;3399;52.530;13.304;2023-01-05T02:40:19;22.00;99.90
6724;DHT22;3399;52.530;13.304;2023-01-05T02:42:46;22.00;99.90
6724;DHT22;3399;52.530;13.304;2023-01-05T02:45:14;22.00;99.90
6724;DHT22;3399;52.530;13.304;2023-01-05T02:47:41;22.00;99.90
6724;DHT22;3399;52.530;13.304;2023-01-05T02:50:11;22.00;99.90
6724;DHT22;3399;52.530;13.304;2023-01-05T02:52:50;22.00;99.90
6724;DHT22;3399;52.530;13.304;2023-01-05T02:55:19;22.00;99.90
6724;DHT22;3399;52.530;13.304;2023-01-05T02:57:57;22.00;99.90
6724;DHT22;3399;52.530;13.304;2023-01-05T03:00:24;22.00;99.90
6724;DHT22;3399;52.530;13.304;2023-01-05T03:02:52;22.00;99.90
6724;DHT22;3399;52.530;13.304;2023-01-05T03:05:21;22.10;99.90
6724;DHT22;3399;52.530;13.304;2023-01-05T03:07:48;22.10;99.90
6724;DHT22;3399;52.530;13.304;2023-01-05T03:10:14;22.10;99.90
6724;DHT22;3399;52.530;13.304;2023-01-05T03:12:58;22.10;99.90
6724;DHT22;3399;52.530;13.304;2023-01-05T03:15:44;22.10;99.90
6724;DHT22;3399;52.530;13.304;2023-01-05T03:18:11;22.10;99.90
6724;DHT22;3399;52.530;13.304;2023-01-05T03:20:39;22.10;99.90
6724;DHT22;3399;52.530;13.304;2023-01-05T03:23:06;22.10;99.90
6724;DHT22;3399;52.530;13.304;2023-01-05T03:25:52;22.10;99.90
6724;DHT22;3399;52.530;13.304;2023-01-05T03:31:22;22.10;99.90
6724;DHT22;3399;52.530;13.304;2023-01-05T03:34:11;22.10;99.90
6724;DHT22;3399;52.530;13.304;2023-01-05T03:37:01;22.10;99.90
6724;DHT22;3399;52.530;13.304;2023-01-05T03:39:28;22.00;99.90
6724;DHT22;3399;52.530;13.304;2023-01-05T03:41:55;22.00;99.90
6724;DHT22;3399;52.530;13.304;2023-01-05T03:44:20;22.00;99.90
6724;DHT22;3399;52.530;13.304;2023-01-05T03:46:46;22.00;99.90
6724;DHT22;3399;52.530;13.304;2023-01-05T03:49:12;22.00;99.90
6724;DHT22;3399;52.530;13.304;2023-01-05T03:51:38;22.00;99.90
6724;DHT22;3399;52.530;13.304;2023-01-05T03:54:03;22.00;99.90
6724;DHT22;3399;52.530;13.304;2023-01-05T03:56:29;22.00;99.90
6724;DHT22;3399;52.530;13.304;2023-01-05T03:58:54;22.00;99.90
6724;DHT22;3399;52.530;13.304;2023-01-05T04:01:20;22.00;99.90
6724;DHT22;3399;52.530;13.304;2023-01-05T04:03:45;22.00;99.90
6724;DHT22;3399;52.530;13.304;2023-01-05T04:06:10;22.00;99.90
6724;DHT22;3399;52.530;13.304;2023-01-05T04:08:36;22.00;99.90
6724;DHT22;3399;52.530;13.304;2023-01-05T04:11:12;21.90;99.90
6724;DHT22;3399;52.530;13.304;2023-01-05T04:13:37;21.90;99.90
6724;DHT22;3399;52.530;13.304;2023-01-05T04:16:03;21.90;99.90
6724;DHT22;3399;52.530;13.304;2023-01-05T04:18:28;21.90;99.90
6724;DHT22;3399;52.530;13.304;2023-01-05T04:20:54;21.90;99.90
6724;DHT22;3399;52.530;13.304;2023-01-05T04:23:19;21.90;99.90
6724;DHT22;3399;52.530;13.304;2023-01-05T04:25:45;21.90;99.90
6724;DHT22;3399;52.530;13.304;2023-01-05T04:28:11;21.90;99.90
6724;DHT22;3399;52.530;13.304;2023-01-05T04:30:36;21.90;99.90
6724;DHT22;3399;52.530;13.304;2023-01-05T04:33:02;21.80;99.90
6724;DHT22;3399;52.530;13.304;2023-01-05T04:35:27;21.80;99.90
6724;DHT22;3399;52.530;13.304;2023-01-05T04:37:52;21.80;99.90
6724;DHT22;3399;52.530;13.304;2023-01-05T04:40:18;21.80;99.90
6724;DHT22;3399;52.530;13.304;2023-01-05T04:42:43;21.80;99.90
6724;DHT22;3399;52.530;13.304;2023-01-05T04:45:09;21.80;99.90
6724;DHT22;3399;52.530;13.304;2023-01-05T04:47:34;21.80;99.90
6724;DHT22;3399;52.530;13.304;2023-01-05T04:50:00;21.80;99.90
6724;DHT22;3399;52.530;13.304;2023-01-05T04:52:25;21.80;99.90
6724;DHT22;3399;52.530;13.304;2023-01-05T04:54:50;21.70;99.90
6724;DHT22;3399;52.530;13.304;2023-01-05T04:57:16;21.70;99.90
6724;DHT22;3399;52.530;13.304;2023-01-05T04:59:41;21.80;99.90
6724;DHT22;3399;52.530;13.304;2023-01-05T05:02:07;21.70;99.90
6724;DHT22;3399;52.530;13.304;2023-01-05T05:04:32;21.70;99.90
6724;DHT22;3399;52.530;13.304;2023-01-05T05:06:58;21.80;99.90
6724;DHT22;3399;52.530;13.304;2023-01-05T05:09:23;21.70;99.90
6724;DHT22;3399;52.530;13.304;2023-01-05T05:11:49;21.70;99.90
6724;DHT22;3399;52.530;13.304;2023-01-05T05:14:14;21.70;99.90
6724;DHT22;3399;52.530;13.304;2023-01-05T05:16:40;21.70;99.90
6724;DHT22;3399;52.530;13.304;2023-01-05T05:19:05;21.70;99.90
6724;DHT22;3399;52.530;13.304;2023-01-05T05:21:30;21.70;99.90
6724;DHT22;3399;52.530;13.304;2023-01-05T05:23:56;21.70;99.90
6724;DHT22;3399;52.530;13.304;2023-01-05T05:26:21;21.70;99.90
6724;DHT22;3399;52.530;13.304;2023-01-05T05:28:47;21.70;99.90
6724;DHT22;3399;52.530;13.304;2023-01-05T05:31:12;21.70;99.90
6724;DHT22;3399;52.530;13.304;2023-01-05T05:33:37;21.70;99.90
6724;DHT22;3399;52.530;13.304;2023-01-05T05:36:04;21.70;99.90
6724;DHT22;3399;52.530;13.304;2023-01-05T05:38:29;21.80;99.90
6724;DHT22;3399;52.530;13.304;2023-01-05T05:40:54;21.80;99.90
6724;DHT22;3399;52.530;13.304;2023-01-05T05:43:20;21.80;99.90
6724;DHT22;3399;52.530;13.304;2023-01-05T05:45:45;21.80;99.90
6724;DHT22;3399;52.530;13.304;2023-01-05T05:48:11;21.80;99.90
6724;DHT22;3399;52.530;13.304;2023-01-05T05:50:36;21.80;99.90
6724;DHT22;3399;52.530;13.304;2023-01-05T05:53:02;21.80;99.90
6724;DHT22;3399;52.530;13.304;2023-01-05T05:55:27;21.80;99.90
6724;DHT22;3399;52.530;13.304;2023-01-05T05:57:52;21.80;99.90
6724;DHT22;3399;52.530;13.304;2023-01-05T06:00:18;21.80;99.90
6724;DHT22;3399;52.530;13.304;2023-01-05T06:02:43;21.80;99.90
6724;DHT22;3399;52.530;13.304;2023-01-05T06:05:09;21.70;99.90
6724;DHT22;3399;52.530;13.304;2023-01-05T06:07:34;21.70;99.90
6724;DHT22;3399;52.530;13.304;2023-01-05T06:09:59;21.70;99.90
6724;DHT22;3399;52.530;13.304;2023-01-05T06:12:25;21.70;99.90
6724;DHT22;3399;52.530;13.304;2023-01-05T06:14:50;21.70;99.90
6724;DHT22;3399;52.530;13.304;2023-01-05T06:17:16;21.70;99.90
6724;DHT22;3399;52.530;13.304;2023-01-05T06:19:41;21.70;99.90
6724;DHT22;3399;52.530;13.304;2023-01-05T06:22:06;21.70;99.90
6724;DHT22;3399;52.530;13.304;2023-01-05T06:24:32;21.70;99.90
6724;DHT22;3399;52.530;13.304;2023-01-05T06:26:57;21.70;99.90
6724;DHT22;3399;52.530;13.304;2023-01-05T06:29:23;21.70;99.90
6724;DHT22;3399;52.530;13.304;2023-01-05T06:31:48;21.70;99.90
6724;DHT22;3399;52.530;13.304;2023-01-05T06:34:13;21.70;99.90
6724;DHT22;3399;52.530;13.304;2023-01-05T06:36:39;21.70;99.90
6724;DHT22;3399;52.530;13.304;2023-01-05T06:39:05;21.70;99.90
6724;DHT22;3399;52.530;13.304;2023-01-05T06:41:30;21.70;99.90
6724;DHT22;3399;52.530;13.304;2023-01-05T06:43:56;21.70;99.90
6724;DHT22;3399;52.530;13.304;2023-01-05T06:46:21;21.70;99.90
6724;DHT22;3399;52.530;13.304;2023-01-05T06:48:46;21.70;99.90
6724;DHT22;3399;52.530;13.304;2023-01-05T06:51:12;21.60;99.90
6724;DHT22;3399;52.530;13.304;2023-01-05T06:53:37;21.70;99.90
6724;DHT22;3399;52.530;13.304;2023-01-05T06:56:03;21.60;99.90
6724;DHT22;3399;52.530;13.304;2023-01-05T06:58:28;21.60;99.90
6724;DHT22;3399;52.530;13.304;2023-01-05T07:00:54;21.60;99.90
6724;DHT22;3399;52.530;13.304;2023-01-05T07:03:19;21.60;99.90
6724;DHT22;3399;52.530;13.304;2023-01-05T07:05:45;21.60;99.90
6724;DHT22;3399;52.530;13.304;2023-01-05T07:08:10;21.60;99.90
6724;DHT22;3399;52.530;13.304;2023-01-05T07:10:35;21.60;99.90
6724;DHT22;3399;52.530;13.304;2023-01-05T07:13:01;21.60;99.90
6724;DHT22;3399;52.530;13.304;2023-01-05T07:15:26;21.60;99.90
6724;DHT22;3399;52.530;13.304;2023-01-05T07:17:52;21.60;99.90
6724;DHT22;3399;52.530;13.304;2023-01-05T07:20:17;21.60;99.90
6724;DHT22;3399;52.530;13.304;2023-01-05T07:22:42;21.60;99.90
6724;DHT22;3399;52.530;13.304;2023-01-05T07:25:08;21.60;99.90
6724;DHT22;3399;52.530;13.304;2023-01-05T07:27:34;21.60;99.90
6724;DHT22;3399;52.530;13.304;2023-01-05T07:29:59;21.50;99.90
6724;DHT22;3399;52.530;13.304;2023-01-05T07:32:25;21.50;99.90
6724;DHT22;3399;52.530;13.304;2023-01-05T07:34:50;21.50;99.90
6724;DHT22;3399;52.530;13.304;2023-01-05T07:37:15;21.50;99.90
6724;DHT22;3399;52.530;13.304;2023-01-05T07:39:41;21.50;99.90
6724;DHT22;3399;52.530;13.304;2023-01-05T07:42:06;21.50;99.90
6724;DHT22;3399;52.530;13.304;2023-01-05T07:44:32;21.50;99.90
6724;DHT22;3399;52.530;13.304;2023-01-05T07:46:57;21.50;99.90
6724;DHT22;3399;52.530;13.304;2023-01-05T07:49:23;21.50;99.90
6724;DHT22;3399;52.530;13.304;2023-01-05T07:51:48;21.50;99.90
6724;DHT22;3399;52.530;13.304;2023-01-05T07:54:13;21.50;99.90
6724;DHT22;3399;52.530;13.304;2023-01-05T07:56:39;21.50;99.90
6724;DHT22;3399;52.530;13.304;2023-01-05T07:59:05;21.50;99.90
6724;DHT22;3399;52.530;13.304;2023-01-05T08:01:30;21.50;99.90
6724;DHT22;3399;52.530;13.304;2023-01-05T08:03:56;21.50;99.90
6724;DHT22;3399;52.530;13.304;2023-01-05T08:06:21;21.50;99.90
6724;DHT22;3399;52.530;13.304;2023-01-05T08:08:46;21.50;99.90
6724;DHT22;3399;52.530;13.304;2023-01-05T08:11:13;21.50;99.90
6724;DHT22;3399;52.530;13.304;2023-01-05T08:13:42;21.50;99.90
6724;DHT22;3399;52.530;13.304;2023-01-05T08:16:30;21.50;99.90
6724;DHT22;3399;52.530;13.304;2023-01-05T08:18:56;21.50;99.90
6724;DHT22;3399;52.530;13.304;2023-01-05T08:21:21;21.50;99.90
6724;DHT22;3399;52.530;13.304;2023-01-05T08:23:47;21.50;99.90
6724;DHT22;3399;52.530;13.304;2023-01-05T08:26:14;21.50;99.90
6724;DHT22;3399;52.530;13.304;2023-01-05T08:28:40;21.50;99.90
6724;DHT22;3399;52.530;13.304;2023-01-05T08:31:10;21.50;99.90
6724;DHT22;3399;52.530;13.304;2023-01-05T08:33:36;21.50;99.90
6724;DHT22;3399;52.530;13.304;2023-01-05T08:36:06;21.50;99.90
6724;DHT22;3399;52.530;13.304;2023-01-05T08:38:31;21.50;99.90
6724;DHT22;3399;52.530;13.304;2023-01-05T08:40:57;21.50;99.90
6724;DHT22;3399;52.530;13.304;2023-01-05T08:43:24;21.50;99.90
6724;DHT22;3399;52.530;13.304;2023-01-05T08:45:49;21.50;99.90
6724;DHT22;3399;52.530;13.304;2023-01-05T08:48:14;21.50;99.90
6724;DHT22;3399;52.530;13.304;2023-01-05T08:50:40;21.50;99.90
6724;DHT22;3399;52.530;13.304;2023-01-05T08:53:05;21.60;99.90
6724;DHT22;3399;52.530;13.304;2023-01-05T08:55:31;21.50;99.90
6724;DHT22;3399;52.530;13.304;2023-01-05T08:57:56;21.50;99.90
6724;DHT22;3399;52.530;13.304;2023-01-05T09:00:22;21.60;99.90
6724;DHT22;3399;52.530;13.304;2023-01-05T09:02:47;21.60;99.90
6724;DHT22;3399;52.530;13.304;2023-01-05T09:05:13;21.60;99.90
6724;DHT22;3399;52.530;13.304;2023-01-05T09:07:38;21.60;99.90
6724;DHT22;3399;52.530;13.304;2023-01-05T09:10:07;21.60;99.90
6724;DHT22;3399;52.530;13.304;2023-01-05T09:12:33;21.60;99.90
6724;DHT22;3399;52.530;13.304;2023-01-05T09:14:59;21.60;98.50
6724;DHT22;3399;52.530;13.304;2023-01-05T09:17:25;20.60;94.40
6724;DHT22;3399;52.530;13.304;2023-01-05T09:19:50;19.70;95.40
6724;DHT22;3399;52.530;13.304;2023-01-05T09:22:15;18.90;96.00
6724;DHT22;3399;52.530;13.304;2023-01-05T09:24:41;18.40;97.10
6724;DHT22;3399;52.530;13.304;2023-01-05T09:27:06;18.00;96.90
6724;DHT22;3399;52.530;13.304;2023-01-05T09:29:32;17.60;97.60
6724;DHT22;3399;52.530;13.304;2023-01-05T09:31:57;17.50;99.10
6724;DHT22;3399;52.530;13.304;2023-01-05T09:34:23;17.20;97.60
6724;DHT22;3399;52.530;13.304;2023-01-05T09:36:48;17.10;98.50
6724;DHT22;3399;52.530;13.304;2023-01-05T09:39:14;17.00;98.20
6724;DHT22;3399;52.530;13.304;2023-01-05T09:41:42;16.60;98.00
6724;DHT22;3399;52.530;13.304;2023-01-05T09:46:56;16.40;98.40
6724;DHT22;3399;52.530;13.304;2023-01-05T09:49:23;16.30;97.90
6724;DHT22;3399;52.530;13.304;2023-01-05T09:51:50;16.20;97.70
6724;DHT22;3399;52.530;13.304;2023-01-05T09:54:18;16.20;96.30
6724;DHT22;3399;52.530;13.304;2023-01-05T09:56:45;16.10;96.80
6724;DHT22;3399;52.530;13.304;2023-01-05T09:59:13;16.00;97.30
6724;DHT22;3399;52.530;13.304;2023-01-05T10:01:39;15.80;96.90
6724;DHT22;3399;52.530;13.304;2023-01-05T10:04:14;15.90;96.90
6724;DHT22;3399;52.530;13.304;2023-01-05T10:06:42;16.00;96.30
6724;DHT22;3399;52.530;13.304;2023-01-05T10:09:09;16.00;96.50
6724;DHT22;3399;52.530;13.304;2023-01-05T10:14:59;15.90;94.80
6724;DHT22;3399;52.530;13.304;2023-01-05T10:17:25;15.70;94.70
6724;DHT22;3399;52.530;13.304;2023-01-05T10:19:52;15.50;95.90
6724;DHT22;3399;52.530;13.304;2023-01-05T10:22:23;15.50;94.90
6724;DHT22;3399;52.530;13.304;2023-01-05T10:24:53;15.50;95.30
6724;DHT22;3399;52.530;13.304;2023-01-05T10:29:48;15.60;94.50
6724;DHT22;3399;52.530;13.304;2023-01-05T10:32:22;15.50;94.50
6724;DHT22;3399;52.530;13.304;2023-01-05T10:34:59;15.70;94.70
6724;DHT22;3399;52.530;13.304;2023-01-05T10:40:13;15.60;94.60
6724;DHT22;3399;52.530;13.304;2023-01-05T10:42:43;15.60;93.80
6724;DHT22;3399;52.530;13.304;2023-01-05T10:45:10;15.40;94.70
6724;DHT22;3399;52.530;13.304;2023-01-05T10:47:37;15.40;94.80
6724;DHT22;3399;52.530;13.304;2023-01-05T10:50:17;15.30;94.90
6724;DHT22;3399;52.530;13.304;2023-01-05T10:52:45;15.40;95.00
6724;DHT22;3399;52.530;13.304;2023-01-05T10:55:12;15.10;95.30
6724;DHT22;3399;52.530;13.304;2023-01-05T10:57:39;14.80;95.20
6724;DHT22;3399;52.530;13.304;2023-01-05T11:00:14;15.00;95.60
6724;DHT22;3399;52.530;13.304;2023-01-05T11:02:50;15.10;95.80
6724;DHT22;3399;52.530;13.304;2023-01-05T11:05:27;14.90;95.00
6724;DHT22;3399;52.530;13.304;2023-01-05T11:07:58;14.90;95.30
6724;DHT22;3399;52.530;13.304;2023-01-05T11:10:29;15.00;95.60
6724;DHT22;3399;52.530;13.304;2023-01-05T11:13:05;15.00;95.30
6724;DHT22;3399;52.530;13.304;2023-01-05T11:15:33;15.00;95.60
6724;DHT22;3399;52.530;13.304;2023-01-05T11:17:59;15.00;95.30
6724;DHT22;3399;52.530;13.304;2023-01-05T11:20:26;14.90;95.50
6724;DHT22;3399;52.530;13.304;2023-01-05T11:22:51;15.00;94.90
6724;DHT22;3399;52.530;13.304;2023-01-05T11:25:27;15.00;95.50
6724;DHT22;3399;52.530;13.304;2023-01-05T11:28:10;15.10;95.20
6724;DHT22;3399;52.530;13.304;2023-01-05T11:30:36;15.20;95.60
6724;DHT22;3399;52.530;13.304;2023-01-05T11:33:02;15.30;94.90
6724;DHT22;3399;52.530;13.304;2023-01-05T11:37:52;15.30;94.90
6724;DHT22;3399;52.530;13.304;2023-01-05T11:40:18;15.30;95.80
6724;DHT22;3399;52.530;13.304;2023-01-05T11:42:44;15.20;95.20
6724;DHT22;3399;52.530;13.304;2023-01-05T11:45:26;15.20;95.10
6724;DHT22;3399;52.530;13.304;2023-01-05T11:47:54;15.20;95.80
6724;DHT22;3399;52.530;13.304;2023-01-05T11:50:27;15.20;94.50
6724;DHT22;3399;52.530;13.304;2023-01-05T11:52:56;15.20;95.00
6724;DHT22;3399;52.530;13.304;2023-01-05T11:55:24;15.40;95.40
6724;DHT22;3399;52.530;13.304;2023-01-05T11:57:55;15.30;95.10
6724;DHT22;3399;52.530;13.304;2023-01-05T12:00:28;15.40;95.40
6724;DHT22;3399;52.530;13.304;2023-01-05T12:03:05;15.40;94.30
6724;DHT22;3399;52.530;13.304;2023-01-05T12:08:04;15.20;95.40
6724;DHT22;3399;52.530;13.304;2023-01-05T12:13:10;15.20;96.50
6724;DHT22;3399;52.530;13.304;2023-01-05T12:15:54;15.30;96.10
6724;DHT22;3399;52.530;13.304;2023-01-05T12:18:41;15.20;95.20
6724;DHT22;3399;52.530;13.304;2023-01-05T12:21:21;15.20;95.70
6724;DHT22;3399;52.530;13.304;2023-01-05T12:23:57;15.30;95.50
6724;DHT22;3399;52.530;13.304;2023-01-05T12:26:33;14.80;95.30
6724;DHT22;3399;52.530;13.304;2023-01-05T12:31:30;14.70;95.30
6724;DHT22;3399;52.530;13.304;2023-01-05T12:36:37;14.50;96.10
6724;DHT22;3399;52.530;13.304;2023-01-05T12:39:20;14.50;95.80
6724;DHT22;3399;52.530;13.304;2023-01-05T12:46:57;14.10;96.10
6724;DHT22;3399;52.530;13.304;2023-01-05T12:49:29;14.00;96.20
6724;DHT22;3399;52.530;13.304;2023-01-05T12:52:06;14.10;95.90
6724;DHT22;3399;52.530;13.304;2023-01-05T12:54:48;14.40;95.80
6724;DHT22;3399;52.530;13.304;2023-01-05T12:57:23;14.40;95.80
6724;DHT22;3399;52.530;13.304;2023-01-05T12:59:57;14.50;95.60
6724;DHT22;3399;52.530;13.304;2023-01-05T13:04:51;14.70;95.30
6724;DHT22;3399;52.530;13.304;2023-01-05T13:07:28;14.60;95.20
6724;DHT22;3399;52.530;13.304;2023-01-05T13:10:04;14.40;95.10
6724;DHT22;3399;52.530;13.304;2023-01-05T13:12:31;14.50;94.80
6724;DHT22;3399;52.530;13.304;2023-01-05T13:15:03;14.40;95.30
6724;DHT22;3399;52.530;13.304;2023-01-05T13:17:33;14.40;95.40
6724;DHT22;3399;52.530;13.304;2023-01-05T13:20:04;14.50;95.00
6724;DHT22;3399;52.530;13.304;2023-01-05T13:22:37;14.40;94.50
6724;DHT22;3399;52.530;13.304;2023-01-05T13:25:08;14.40;95.00
6724;DHT22;3399;52.530;13.304;2023-01-05T13:27:38;14.40;95.10
6724;DHT22;3399;52.530;13.304;2023-01-05T13:30:03;14.40;94.90
6724;DHT22;3399;52.530;13.304;2023-01-05T13:35:19;14.60;95.50
6724;DHT22;3399;52.530;13.304;2023-01-05T13:40:21;14.70;95.20
6724;DHT22;3399;52.530;13.304;2023-01-05T13:43:03;14.60;95.00
6724;DHT22;3399;52.530;13.304;2023-01-05T13:50:59;14.40;95.20
6724;DHT22;3399;52.530;13.304;2023-01-05T13:53:28;14.50;95.70
6724;DHT22;3399;52.530;13.304;2023-01-05T13:55:55;14.50;95.70
6724;DHT22;3399;52.530;13.304;2023-01-05T14:00:47;14.10;95.60
6724;DHT22;3399;52.530;13.304;2023-01-05T14:03:19;14.00;96.10
6724;DHT22;3399;52.530;13.304;2023-01-05T14:05:49;14.00;95.70
6724;DHT22;3399;52.530;13.304;2023-01-05T14:08:17;14.00;96.10
6724;DHT22;3399;52.530;13.304;2023-01-05T14:10:50;13.90;95.80
6724;DHT22;3399;52.530;13.304;2023-01-05T14:27:08;15.30;99.90
6724;DHT22;3399;52.530;13.304;2023-01-05T14:34:46;21.00;97.20
6724;DHT22;3399;52.530;13.304;2023-01-05T14:37:24;21.60;96.60
6724;DHT22;3399;52.530;13.304;2023-01-05T14:42:36;21.70;76.10
6724;DHT22;3399;52.530;13.304;2023-01-05T14:45:19;17.70;77.10
6724;DHT22;3399;52.530;13.304;2023-01-05T14:47:47;14.60;86.60
6724;DHT22;3399;52.530;13.304;2023-01-05T14:50:33;12.10;93.60
6724;DHT22;3399;52.530;13.304;2023-01-05T14:55:38;9.30;99.90
6724;DHT22;3399;52.530;13.304;2023-01-05T15:01:29;8.70;99.90
6724;DHT22;3399;52.530;13.304;2023-01-05T15:04:15;8.60;99.90
6724;DHT22;3399;52.530;13.304;2023-01-05T15:09:56;8.60;99.90
6724;DHT22;3399;52.530;13.304;2023-01-05T15:13:11;8.80;99.90
6724;DHT22;3399;52.530;13.304;2023-01-05T15:15:44;8.60;99.90
6724;DHT22;3399;52.530;13.304;2023-01-05T15:21:31;8.40;99.90
6724;DHT22;3399;52.530;13.304;2023-01-05T15:32:38;7.90;99.90
6724;DHT22;3399;52.530;13.304;2023-01-05T15:35:38;7.80;99.90
6724;DHT22;3399;52.530;13.304;2023-01-05T15:38:24;7.80;99.90
6724;DHT22;3399;52.530;13.304;2023-01-05T15:41:05;7.80;99.90
6724;DHT22;3399;52.530;13.304;2023-01-05T15:43:32;7.80;99.90
6724;DHT22;3399;52.530;13.304;2023-01-05T15:45:58;7.80;99.90
6724;DHT22;3399;52.530;13.304;2023-01-05T15:48:41;7.70;99.90
6724;DHT22;3399;52.530;13.304;2023-01-05T15:51:08;7.70;99.90
6724;DHT22;3399;52.530;13.304;2023-01-05T15:53:38;7.60;99.90
6724;DHT22;3399;52.530;13.304;2023-01-05T15:56:22;7.60;99.90
6724;DHT22;3399;52.530;13.304;2023-01-05T15:58:50;7.60;99.90
6724;DHT22;3399;52.530;13.304;2023-01-05T16:01:15;7.60;99.90
6724;DHT22;3399;52.530;13.304;2023-01-05T16:03:43;7.50;99.90
6724;DHT22;3399;52.530;13.304;2023-01-05T16:06:15;7.50;99.90
6724;DHT22;3399;52.530;13.304;2023-01-05T16:08:43;7.50;99.90
6724;DHT22;3399;52.530;13.304;2023-01-05T16:11:13;7.50;99.90
6724;DHT22;3399;52.530;13.304;2023-01-05T16:14:00;7.50;99.90
6724;DHT22;3399;52.530;13.304;2023-01-05T16:16:44;7.50;99.90
6724;DHT22;3399;52.530;13.304;2023-01-05T16:22:14;7.60;99.90
6724;DHT22;3399;52.530;13.304;2023-01-05T16:27:38;7.50;99.90
6724;DHT22;3399;52.530;13.304;2023-01-05T16:30:28;7.50;99.90
6724;DHT22;3399;52.530;13.304;2023-01-05T16:33:02;7.50;99.90
6724;DHT22;3399;52.530;13.304;2023-01-05T16:35:37;7.60;99.90
6724;DHT22;3399;52.530;13.304;2023-01-05T16:45:44;7.50;99.90
6724;DHT22;3399;52.530;13.304;2023-01-05T16:51:07;7.40;99.90
6724;DHT22;3399;52.530;13.304;2023-01-05T16:53:34;7.40;99.90
6724;DHT22;3399;52.530;13.304;2023-01-05T16:56:20;7.40;99.90
6724;DHT22;3399;52.530;13.304;2023-01-05T16:58:47;7.40;99.90
6724;DHT22;3399;52.530;13.304;2023-01-05T17:03:39;7.40;99.90
6724;DHT22;3399;52.530;13.304;2023-01-05T17:06:06;7.40;99.90
6724;DHT22;3399;52.530;13.304;2023-01-05T17:08:38;7.40;99.90
6724;DHT22;3399;52.530;13.304;2023-01-05T17:11:07;7.40;99.90
6724;DHT22;3399;52.530;13.304;2023-01-05T17:13:42;7.40;99.90
6724;DHT22;3399;52.530;13.304;2023-01-05T17:16:12;7.30;99.90
6724;DHT22;3399;52.530;13.304;2023-01-05T17:18:39;7.40;99.90
6724;DHT22;3399;52.530;13.304;2023-01-05T17:21:05;7.40;99.90
6724;DHT22;3399;52.530;13.304;2023-01-05T17:23:35;7.40;99.90
6724;DHT22;3399;52.530;13.304;2023-01-05T17:26:08;7.40;99.90
6724;DHT22;3399;52.530;13.304;2023-01-05T17:28:34;7.30;99.90
6724;DHT22;3399;52.530;13.304;2023-01-05T17:31:00;7.30;99.90
6724;DHT22;3399;52.530;13.304;2023-01-05T17:33:25;7.30;99.90
6724;DHT22;3399;52.530;13.304;2023-01-05T17:35:51;7.30;99.90
6724;DHT22;3399;52.530;13.304;2023-01-05T17:38:17;7.30;99.90
6724;DHT22;3399;52.530;13.304;2023-01-05T17:40:42;7.30;99.90
6724;DHT22;3399;52.530;13.304;2023-01-05T17:43:08;7.20;99.90
6724;DHT22;3399;52.530;13.304;2023-01-05T17:45:35;7.20;99.90
6724;DHT22;3399;52.530;13.304;2023-01-05T17:48:02;7.20;99.90
6724;DHT22;3399;52.530;13.304;2023-01-05T17:50:30;7.20;99.90
6724;DHT22;3399;52.530;13.304;2023-01-05T17:53:00;7.20;99.90
6724;DHT22;3399;52.530;13.304;2023-01-05T17:55:27;7.20;99.90
6724;DHT22;3399;52.530;13.304;2023-01-05T17:57:53;7.10;99.90
6724;DHT22;3399;52.530;13.304;2023-01-05T18:00:21;7.10;99.90
6724;DHT22;3399;52.530;13.304;2023-01-05T18:02:48;7.10;99.90